Flight Track Log - Related Links

Times and Time Zones

All times are in EDT time to prevent confusion due to time zone crossing. See the N332DE flight status page for this flight to view local times or setup timezone preferences in your user account.

Time Position Orientation Groundspeed Altitude Reporting Facility
EDT Latitude Longitude Course Direction KTS MPH feet Rate Location/Type
Tue 01:57:10 PM 44.8939 -93.1883 North 145 167 2,900  Level FAA TRACON SMA TRACON (SMA)
Tue 01:57:50 PM 44.9244 -93.1833 North 162 186 3,800 1,125 Climbing FAA TRACON SMA TRACON (SMA)
Tue 01:58:30 PM 44.9558 -93.1772 North 189 217 4,400 825 Climbing FAA TRACON SMA TRACON (SMA)
Tue 01:59:10 PM 44.9958 -93.1722 North 210 242 4,900 750 Climbing FAA TRACON SMA TRACON (SMA)
Tue 01:59:50 PM 45.0386 -93.1664 11° North 225 259 5,400 1,333 Climbing FAA TRACON SMA TRACON (SMA)
Tue 02:00:31 PM 45.0708 -93.1575 349° North 189 217 6,700 1,407 Climbing FAA TRACON SMA TRACON (SMA)
Tue 02:01:11 PM 45.1056 -93.1669 329° Northwest 189 217 7,300 1,215 Climbing FAA TRACON SMA TRACON (SMA)
Tue 02:01:50 PM 45.1358 -93.1928 310° West 184 212 8,300 1,291 Climbing FAA TRACON SMA TRACON (SMA)
Tue 02:02:30 PM 45.1531 -93.2219 292° West 162 186 9,000 815 Climbing FAA TRACON SMA TRACON (SMA)
Tue 02:03:11 PM 45.1647 -93.2639 293° West 165 190 9,400 975 Climbing FAA TRACON SMA TRACON (SMA)
Tue 02:03:50 PM 45.1772 -93.3053 296° West 165 190 10,300 1,125 Climbing FAA TRACON SMA TRACON (SMA)
Tue 02:04:31 PM 45.1897 -93.3411 295° West 165 190 10,900 1,037 Climbing FAA TRACON SMA TRACON (SMA)
Tue 02:05:11 PM 45.2036 -93.3828 295° West 169 194 11,700 750 Climbing FAA TRACON SMA TRACON (SMA)
Tue 02:05:51 PM 45.2181 -93.4272 293° West 181 208 11,900 150 Climbing FAA TRACON SMA TRACON (SMA)
Tue 02:06:31 PM 45.2314 -93.4719 293° West 201 231 11,900  Level FAA TRACON SMA TRACON (SMA)
Tue 02:07:11 PM 45.2472 -93.5253 294° West 213 245 11,900  Level FAA TRACON SMA TRACON (SMA)
Tue 02:07:51 PM 45.2639 -93.5794 294° West 215 247 11,900  Level FAA TRACON SMA TRACON (SMA)
Tue 02:08:31 PM 45.2792 -93.6272 296° West 218 251 11,900  Level FAA TRACON SMA TRACON (SMA)
Tue 02:09:11 PM 45.2975 -93.6808 300° West 217 250 11,900  Level FAA TRACON SMA TRACON (SMA)
Tue 02:09:50 PM 45.3181 -93.7325 297° West 217 250 11,900  Level FAA TRACON SMA TRACON (SMA)
Tue 02:10:31 PM 45.3350 -93.7789 298° West 216 249 11,900  Level FAA TRACON SMA TRACON (SMA)
Tue 02:11:11 PM 45.3544 -93.8319 298° West 218 251 11,900 349 Level FAA TRACON SMA TRACON (SMA)
Tue 02:11:57 PM 45.3736 -93.8828 300° West 209 241 12,400 825 Climbing FAA TRACON SMA TRACON (SMA)
Tue 02:12:31 PM 45.3897 -93.9231 298° West 192 221 13,000 973 Climbing FAA TRACON SMA TRACON (SMA)
Tue 02:13:11 PM 45.4061 -93.9661 294° West 179 206 13,600 975 Climbing FAA TRACON SMA TRACON (SMA)
Tue 02:13:51 PM 45.4197 -94.0094 292° West 172 198 14,300 975 Climbing FAA TRACON SMA TRACON (SMA)
Tue 02:14:31 PM 45.4303 -94.0467 289° West 167 192 14,900 987 Climbing FAA TRACON SMA TRACON (SMA)
Tue 02:15:10 PM 45.4406 -94.0886 287° West 163 188 15,600 900 Climbing FAA TRACON SMA TRACON (SMA)
Tue 02:15:51 PM 45.4489 -94.1264 290° West 161 185 16,100 815 Climbing FAA TRACON SMA TRACON (SMA)
Tue 02:16:31 PM 45.4597 -94.1694 296° West 168 193 16,700 750 Climbing FAA TRACON SMA TRACON (SMA)
Tue 02:17:11 PM 45.4744 -94.2119 298° West 173 199 17,100 675 Climbing FAA TRACON SMA TRACON (SMA)
Tue 02:17:51 PM 45.4903 -94.2544 301° West 176 203 17,600 675 Climbing FAA TRACON SMA TRACON (SMA)
Tue 02:18:31 PM 45.5053 -94.2900 304° West 172 198 18,000 675 Climbing FAA TRACON SMA TRACON (SMA)
Tue 02:19:11 PM 45.5217 -94.3253 298° West 173 199 18,500 708 Climbing FAA TRACON SMA TRACON (SMA)
Tue 02:20:55 PM 45.5589 -94.4256 300° West 165 190 19,700 506 Climbing Minneapolis Center
Tue 02:21:57 PM 45.5819 -94.4828 298° West 165 190 19,900 96 Climbing Minneapolis Center
Tue 02:23:00 PM 45.6064 -94.5483 294° West 178 205 19,900  Level Minneapolis Center
Tue 02:24:02 PM 45.6289 -94.6211 295° West 195 224 19,900  Level Minneapolis Center
Tue 02:25:05 PM 45.6567 -94.7072 293° West 201 231 19,900  Level Minneapolis Center
Tue 02:26:07 PM 45.6778 -94.7800 294° West 198 228 19,900  Level Minneapolis Center
Tue 02:27:10 PM 45.7006 -94.8525 292° West 198 228 19,900  Level Minneapolis Center
Tue 02:28:12 PM 45.7217 -94.9283 295° West 202 232 19,900  Level Minneapolis Center
Tue 02:29:15 PM 45.7458 -95.0031 296° West 204 235 19,900  Level Minneapolis Center
Tue 02:30:17 PM 45.7719 -95.0797 297° West 206 237 19,900 48 Level Minneapolis Center
Tue 02:31:20 PM 45.7981 -95.1547 298° West 206 237 20,000 48 Climbing Minneapolis Center
Tue 02:32:22 PM 45.8250 -95.2281 297° West 206 237 20,000  Level Minneapolis Center
Tue 02:33:25 PM 45.8567 -95.3186 298° West 208 239 20,000  Level Minneapolis Center
Tue 02:34:27 PM 45.8842 -95.3931 296° West 209 241 20,000  Level Minneapolis Center
Tue 02:35:30 PM 45.9097 -95.4689 293° West 208 239 20,000  Level Minneapolis Center
Tue 02:36:32 PM 45.9333 -95.5472 294° West 210 242 20,000  Level Minneapolis Center
Tue 02:37:34 PM 45.9575 -95.6250 294° West 210 242 20,000  Level Minneapolis Center
Tue 02:38:37 PM 45.9817 -95.7044 294° West 213 245 20,000  Level Minneapolis Center
Tue 02:39:39 PM 46.0058 -95.7836 294° West 213 245 20,000  Level Minneapolis Center
Tue 02:40:42 PM 46.0350 -95.8792 293° West 214 246 20,000  Level Minneapolis Center
Tue 02:41:44 PM 46.0592 -95.9594 293° West 215 247 20,000  Level Minneapolis Center
Tue 02:42:47 PM 46.0825 -96.0392 293° West 214 246 20,000  Level Minneapolis Center
Tue 02:43:49 PM 46.1058 -96.1194 294° West 215 247 20,000  Level Minneapolis Center
Tue 02:44:52 PM 46.1314 -96.2039 295° West 215 247 20,000  Level Minneapolis Center
Tue 02:45:55 PM 46.1558 -96.2800 296° West 217 250 20,000  Level Minneapolis Center
Tue 02:46:57 PM 46.1831 -96.3611 295° West 217 250 20,000  Level Minneapolis Center
Tue 02:48:00 PM 46.2083 -96.4408 296° West 218 251 20,000  Level Minneapolis Center
Tue 02:49:02 PM 46.2350 -96.5200 294° West 219 252 20,000  Level Minneapolis Center
Tue 02:50:05 PM 46.2647 -96.6147 298° West 218 251 20,000  Level Minneapolis Center
Tue 02:51:07 PM 46.2925 -96.6903 297° West 216 249 20,000  Level Minneapolis Center
Tue 02:52:10 PM 46.3200 -96.7669 297° West 216 249 20,000  Level Minneapolis Center
Tue 02:53:12 PM 46.3475 -96.8442 297° West 216 249 20,000  Level Minneapolis Center
Tue 02:54:15 PM 46.3811 -96.9386 300° West 218 251 20,000  Level Minneapolis Center
Tue 02:55:17 PM 46.4106 -97.0119 298° West 215 247 20,000  Level Minneapolis Center
Tue 02:56:20 PM 46.4389 -97.0894 298° West 217 250 20,000  Level Minneapolis Center
Tue 02:57:23 PM 46.4667 -97.1644 296° West 214 246 20,000  Level Minneapolis Center
Tue 02:58:25 PM 46.4922 -97.2419 293° West 213 245 20,000  Level Minneapolis Center
Tue 02:59:28 PM 46.5194 -97.3358 294° West 211 243 20,000  Level Minneapolis Center
Tue 03:00:30 PM 46.5436 -97.4147 295° West 213 245 20,000  Level Minneapolis Center
Tue 03:01:33 PM 46.5683 -97.4911 294° West 211 243 20,000  Level Minneapolis Center
Tue 03:02:35 PM 46.5917 -97.5683 294° West 210 242 20,000  Level Minneapolis Center
Tue 03:03:38 PM 46.6158 -97.6458 296° West 209 241 20,000  Level Minneapolis Center
Tue 03:04:40 PM 46.6458 -97.7372 296° West 210 242 20,000  Level Minneapolis Center
Tue 03:05:42 PM 46.6722 -97.8164 297° West 214 246 20,000  Level Minneapolis Center
Tue 03:06:45 PM 46.6981 -97.8919 295° West 212 244 20,000  Level Minneapolis Center
Tue 03:07:47 PM 46.7231 -97.9694 292° West 212 244 20,000  Level Minneapolis Center
Tue 03:08:49 PM 46.7453 -98.0489 292° West 211 243 20,000  Level Minneapolis Center
Tue 03:09:52 PM 46.7672 -98.1286 293° West 212 244 20,000  Level Minneapolis Center
Tue 03:10:54 PM 46.7939 -98.2222 292° West 211 243 20,000  Level Minneapolis Center
Tue 03:11:56 PM 46.8164 -98.3022 289° West 211 243 20,000 -48 Level Minneapolis Center
Tue 03:12:59 PM 46.8350 -98.3808 291° West 208 239 19,900 -48 Descending Minneapolis Center
Tue 03:14:01 PM 46.8550 -98.4581 291° West 206 237 19,900  Level Minneapolis Center
Tue 03:15:03 PM 46.8756 -98.5381 294° West 207 238 19,900  Level Minneapolis Center
Tue 03:16:06 PM 46.9044 -98.6333 293° West 210 242 19,900  Level Minneapolis Center
Tue 03:17:08 PM 46.9275 -98.7147 293° West 214 246 19,900  Level Minneapolis Center
Tue 03:18:10 PM 46.9508 -98.7958 294° West 215 247 19,900  Level Minneapolis Center
Tue 03:19:13 PM 46.9750 -98.8769 294° West 216 249 19,900  Level Minneapolis Center
Tue 03:20:15 PM 46.9997 -98.9578 295° West 217 250 19,900  Level Minneapolis Center
Tue 03:21:17 PM 47.0242 -99.0358 295° West 215 247 19,900 -288 Level Minneapolis Center
Tue 03:22:20 PM 47.0542 -99.1319 294° West 214 246 19,300 -480 Descending Minneapolis Center
Tue 03:23:22 PM 47.0789 -99.2147 291° West 217 250 18,900 -435 Descending Minneapolis Center
Tue 03:24:24 PM 47.1014 -99.2992 291° West 220 253 18,400 -629 Descending Minneapolis Center
Tue 03:25:26 PM 47.1244 -99.3861 292° West 224 258 17,600 -624 Descending Minneapolis Center
Tue 03:26:29 PM 47.1478 -99.4706 292° West 225 259 17,100 -480 Descending Minneapolis Center
Tue 03:27:31 PM 47.1753 -99.5717 293° West 224 258 16,600 -484 Descending Minneapolis Center
Tue 03:28:33 PM 47.1994 -99.6550 292° West 223 257 16,100 -435 Descending Minneapolis Center
Tue 03:29:35 PM 47.2228 -99.7397 293° West 223 257 15,700 -242 Descending Minneapolis Center
Tue 03:30:37 PM 47.2464 -99.8231 292° West 222 255 15,600 194 Descending Minneapolis Center
Tue 03:31:39 PM 47.2678 -99.9028 291° West 218 251 16,100 145 Climbing Minneapolis Center
Tue 03:32:41 PM 47.2872 -99.9781 292° West 208 239 15,900 -48 Descending Minneapolis Center
Tue 03:33:43 PM 47.3133 -100.0717 295° West 206 237 16,000 48 Climbing Minneapolis Center
Tue 03:34:45 PM 47.3375 -100.1486 294° West 206 237 16,000 -97 Level Minneapolis Center
Tue 03:35:47 PM 47.3611 -100.2256 293° West 206 237 15,800 -339 Descending Minneapolis Center
Tue 03:36:49 PM 47.3847 -100.3086 288° West 211 243 15,300 -435 Descending Minneapolis Center
Tue 03:37:51 PM 47.4039 -100.3936 291° West 218 251 14,900 -435 Descending Minneapolis Center
Tue 03:38:53 PM 47.4258 -100.4794 291° West 222 255 14,400 -484 Descending Minneapolis Center
Tue 03:39:55 PM 47.4519 -100.5803 295° West 221 254 13,900 -242 Descending Minneapolis Center
Tue 03:40:57 PM 47.4772 -100.6622 296° West 220 253 13,900  Level Minneapolis Center
Tue 03:41:59 PM 47.5025 -100.7397 295° West 213 245 13,900  Level Minneapolis Center
Tue 03:43:02 PM 47.5264 -100.8167 292° West 209 241 13,900  Level Minneapolis Center
Tue 03:44:04 PM 47.5483 -100.8964 291° West 209 241 13,900  Level Minneapolis Center
Tue 03:45:06 PM 47.5686 -100.9767 290° West 210 242 13,900  Level Minneapolis Center
Tue 03:46:08 PM 47.5897 -101.0625 289° West 209 241 13,900  Level Minneapolis Center
Tue 03:47:10 PM 47.6083 -101.1433 291° West 209 241 13,900  Level Minneapolis Center
Tue 03:48:12 PM 47.6336 -101.2419 288° West 211 243 13,900  Level Minneapolis Center
Tue 03:49:14 PM 47.6517 -101.3256 288° West 213 245 13,900  Level Minneapolis Center
Tue 03:50:17 PM 47.6700 -101.4083 289° West 213 245 13,900  Level Minneapolis Center
Tue 03:51:19 PM 47.6886 -101.4906 290° West 212 244 13,900  Level Minneapolis Center
Tue 03:52:21 PM 47.7089 -101.5739 286° West 213 245 13,900  Level Minneapolis Center
Tue 03:53:23 PM 47.7286 -101.6733 286° West 212 244 13,900  Level Minneapolis Center
Tue 03:54:25 PM 47.7453 -101.7572 291° West 212 244 13,900  Level Minneapolis Center
Tue 03:55:27 PM 47.7667 -101.8394 287° West 213 245 13,900  Level Minneapolis Center
Tue 03:56:30 PM 47.7844 -101.9242 288° West 214 246 13,900 -96 Level Minneapolis Center
Tue 03:57:32 PM 47.8033 -102.0092 284° West 215 247 13,700 -339 Descending Minneapolis Center
Tue 03:58:34 PM 47.8186 -102.0981 285° West 218 251 13,200 -528 Descending Minneapolis Center
Tue 03:59:37 PM 47.8386 -102.2094 283° West 226 260 12,600 -480 Descending Minneapolis Center
Tue 04:00:39 PM 47.8522 -102.3006 285° West 228 262 12,200 -387 Descending Minneapolis Center
Tue 04:01:41 PM 47.8689 -102.3917 284° West 228 262 11,800 -435 Descending Minneapolis Center
Tue 04:02:43 PM 47.8839 -102.4817 287° West 227 261 11,300 -480 Descending Minneapolis Center
Tue 04:03:46 PM 47.9022 -102.5722 299° West 227 261 10,800 -528 Descending Minneapolis Center
Tue 04:04:48 PM 47.9389 -102.6692 311° West 224 258 10,200 -576 Descending Minneapolis Center
Tue 04:05:51 PM 47.9781 -102.7369 314° West 219 252 9,600 -480 Descending Minneapolis Center
Tue 04:06:53 PM 48.0197 -102.8025 305° West 219 252 9,200 -435 Descending Minneapolis Center
Tue 04:07:55 PM 48.0561 -102.8789 303° West 224 258 8,700 -484 Descending Minneapolis Center
Tue 04:08:57 PM 48.0897 -102.9553 300° West 224 258 8,200 -528 Descending Minneapolis Center
Tue 04:10:00 PM 48.1258 -103.0494 296° West 222 255 7,600 -528 Descending Minneapolis Center
Tue 04:11:02 PM 48.1525 -103.1308 281° West 220 253 7,100 -432 Descending Minneapolis Center
Tue 04:12:05 PM 48.1636 -103.2200 281° West 221 254 6,700 -432 Descending Minneapolis Center
Tue 04:13:07 PM 48.1750 -103.3083 279° West 220 253 6,200 -358 Descending Minneapolis Center
Tue 04:14:19 PM 48.1856 -103.4117 278° West 217 250 5,900 -537 Descending Salt Lake Center
Tue 04:15:21 PM 48.1950 -103.5153 282° West 214 246 5,000 -919 Descending Salt Lake Center
Tue 04:16:23 PM 48.2067 -103.5986 292° West 211 243 4,000 -726 Descending Salt Lake Center
Tue 04:17:25 PM 48.2256 -103.6694 190° South 193 222 3,500 -677 Descending Salt Lake Center
Tue 04:18:27 PM 48.1967 -103.6772 190° South 144 166 2,600 -871 Descending Salt Lake Center

Login

Don't have an account? Register now (free) for customized features, flight alerts, and more!